Terminal Aerodrome Forecast
Issued by NWS

Home | Current Version | Previous Version | Text Only | Print | Product List | Glossary On
Versions: 1 2 3 4 5 6 7 8 9 10 11 12 13 14 15 16
724
FTUS46 KSEW 131738
TAFPAE
TAF
KPAE 131738Z 1318/1418 18014G22KT P6SM SCT010 BKN020 OVC100
     FM132000 16012G20KT P6SM -RA SCT015 OVC030
     FM132200 17016G26KT 6SM -RA BR SCT012 BKN020 OVC030
     FM140200 18018G26KT P6SM VCSH SCT012 OVC020
     FM140900 17010KT 6SM -RA BR OVC012=

USA.gov is the U.S. government's official web portal to all federal, state and local government web resources and services.